sensor_id;sensor_type;location;lat;lon;timestamp;P1;durP1;ratioP1;P2;durP2;ratioP2
12816;SDS011;6473;51.552;6.716;2022-07-23T00:00:42;3.90;;;3.50;;
12816;SDS011;6473;51.552;6.716;2022-07-23T00:03:11;7.13;;;3.65;;
12816;SDS011;6473;51.552;6.716;2022-07-23T00:05:38;3.70;;;3.33;;
12816;SDS011;6473;51.552;6.716;2022-07-23T00:08:05;4.55;;;3.67;;
12816;SDS011;6473;51.552;6.716;2022-07-23T00:10:33;5.72;;;3.25;;
12816;SDS011;6473;51.552;6.716;2022-07-23T00:13:00;4.57;;;3.63;;
12816;SDS011;6473;51.552;6.716;2022-07-23T00:15:27;4.05;;;3.53;;
12816;SDS011;6473;51.552;6.716;2022-07-23T00:17:54;6.07;;;3.50;;
12816;SDS011;6473;51.552;6.716;2022-07-23T00:20:22;4.60;;;3.80;;
12816;SDS011;6473;51.552;6.716;2022-07-23T00:22:50;5.47;;;3.33;;
12816;SDS011;6473;51.552;6.716;2022-07-23T00:25:19;4.32;;;3.88;;
12816;SDS011;6473;51.552;6.716;2022-07-23T00:27:46;4.50;;;4.00;;
12816;SDS011;6473;51.552;6.716;2022-07-23T00:30:13;5.15;;;3.58;;
12816;SDS011;6473;51.552;6.716;2022-07-23T00:32:47;4.45;;;3.38;;
12816;SDS011;6473;51.552;6.716;2022-07-23T00:35:15;5.35;;;3.30;;
12816;SDS011;6473;51.552;6.716;2022-07-23T00:37:46;5.18;;;3.80;;
12816;SDS011;6473;51.552;6.716;2022-07-23T00:40:14;5.70;;;3.67;;
12816;SDS011;6473;51.552;6.716;2022-07-23T00:42:41;5.60;;;3.90;;
12816;SDS011;6473;51.552;6.716;2022-07-23T00:45:08;5.15;;;4.10;;
12816;SDS011;6473;51.552;6.716;2022-07-23T00:47:36;4.93;;;3.70;;
12816;SDS011;6473;51.552;6.716;2022-07-23T00:50:03;6.38;;;3.90;;
12816;SDS011;6473;51.552;6.716;2022-07-23T00:52:32;5.15;;;3.97;;
12816;SDS011;6473;51.552;6.716;2022-07-23T00:55:01;5.68;;;4.00;;
12816;SDS011;6473;51.552;6.716;2022-07-23T00:57:31;4.28;;;3.80;;
12816;SDS011;6473;51.552;6.716;2022-07-23T01:00:02;4.68;;;3.95;;
12816;SDS011;6473;51.552;6.716;2022-07-23T01:02:44;4.75;;;4.20;;
12816;SDS011;6473;51.552;6.716;2022-07-23T01:05:11;4.00;;;3.58;;
12816;SDS011;6473;51.552;6.716;2022-07-23T01:07:38;4.38;;;3.97;;
12816;SDS011;6473;51.552;6.716;2022-07-23T01:10:08;4.30;;;3.90;;
12816;SDS011;6473;51.552;6.716;2022-07-23T01:12:49;4.25;;;3.85;;
12816;SDS011;6473;51.552;6.716;2022-07-23T01:15:17;5.22;;;4.03;;
12816;SDS011;6473;51.552;6.716;2022-07-23T01:17:51;5.53;;;4.30;;
12816;SDS011;6473;51.552;6.716;2022-07-23T01:20:20;4.75;;;3.75;;
12816;SDS011;6473;51.552;6.716;2022-07-23T01:23:02;4.68;;;4.10;;
12816;SDS011;6473;51.552;6.716;2022-07-23T01:25:30;4.80;;;3.83;;
12816;SDS011;6473;51.552;6.716;2022-07-23T01:28:10;4.30;;;3.92;;
12816;SDS011;6473;51.552;6.716;2022-07-23T01:30:40;5.93;;;3.92;;
12816;SDS011;6473;51.552;6.716;2022-07-23T01:33:17;4.30;;;3.88;;
12816;SDS011;6473;51.552;6.716;2022-07-23T01:35:44;4.88;;;4.30;;
12816;SDS011;6473;51.552;6.716;2022-07-23T01:38:18;7.57;;;4.85;;
12816;SDS011;6473;51.552;6.716;2022-07-23T01:40:46;5.13;;;4.10;;
12816;SDS011;6473;51.552;6.716;2022-07-23T01:43:13;4.93;;;4.32;;
12816;SDS011;6473;51.552;6.716;2022-07-23T01:45:40;5.50;;;4.03;;
12816;SDS011;6473;51.552;6.716;2022-07-23T01:48:09;5.32;;;4.03;;
12816;SDS011;6473;51.552;6.716;2022-07-23T01:50:38;6.18;;;4.18;;
12816;SDS011;6473;51.552;6.716;2022-07-23T01:53:18;5.45;;;4.10;;
12816;SDS011;6473;51.552;6.716;2022-07-23T01:55:46;4.03;;;3.60;;
12816;SDS011;6473;51.552;6.716;2022-07-23T01:58:13;5.38;;;3.97;;
12816;SDS011;6473;51.552;6.716;2022-07-23T02:00:40;6.10;;;4.13;;
12816;SDS011;6473;51.552;6.716;2022-07-23T02:03:07;5.05;;;4.50;;
12816;SDS011;6473;51.552;6.716;2022-07-23T02:05:51;4.22;;;3.83;;
12816;SDS011;6473;51.552;6.716;2022-07-23T02:08:20;6.13;;;3.85;;
12816;SDS011;6473;51.552;6.716;2022-07-23T02:11:07;6.35;;;4.38;;
12816;SDS011;6473;51.552;6.716;2022-07-23T02:13:34;5.03;;;4.57;;
12816;SDS011;6473;51.552;6.716;2022-07-23T02:16:02;5.95;;;4.35;;
12816;SDS011;6473;51.552;6.716;2022-07-23T02:18:29;4.82;;;4.40;;
12816;SDS011;6473;51.552;6.716;2022-07-23T02:20:56;6.13;;;4.88;;
12816;SDS011;6473;51.552;6.716;2022-07-23T02:23:24;6.85;;;4.82;;
12816;SDS011;6473;51.552;6.716;2022-07-23T02:25:52;5.63;;;4.93;;
12816;SDS011;6473;51.552;6.716;2022-07-23T02:28:20;4.63;;;4.22;;
12816;SDS011;6473;51.552;6.716;2022-07-23T02:30:47;7.30;;;4.82;;
12816;SDS011;6473;51.552;6.716;2022-07-23T02:33:15;5.65;;;4.45;;
12816;SDS011;6473;51.552;6.716;2022-07-23T02:35:42;7.13;;;4.85;;
12816;SDS011;6473;51.552;6.716;2022-07-23T02:38:10;5.90;;;4.47;;
12816;SDS011;6473;51.552;6.716;2022-07-23T02:40:38;5.10;;;4.60;;
12816;SDS011;6473;51.552;6.716;2022-07-23T02:43:06;5.50;;;5.00;;
12816;SDS011;6473;51.552;6.716;2022-07-23T02:45:33;5.82;;;4.97;;
12816;SDS011;6473;51.552;6.716;2022-07-23T02:48:00;4.50;;;4.10;;
12816;SDS011;6473;51.552;6.716;2022-07-23T02:50:28;6.75;;;4.70;;
12816;SDS011;6473;51.552;6.716;2022-07-23T02:53:11;6.13;;;4.85;;
12816;SDS011;6473;51.552;6.716;2022-07-23T02:55:41;6.38;;;4.93;;
12816;SDS011;6473;51.552;6.716;2022-07-23T02:58:08;5.10;;;4.70;;
12816;SDS011;6473;51.552;6.716;2022-07-23T03:00:35;5.32;;;4.82;;
12816;SDS011;6473;51.552;6.716;2022-07-23T03:03:02;7.82;;;4.95;;
12816;SDS011;6473;51.552;6.716;2022-07-23T03:05:30;6.55;;;4.38;;
12816;SDS011;6473;51.552;6.716;2022-07-23T03:07:58;5.20;;;4.78;;
12816;SDS011;6473;51.552;6.716;2022-07-23T03:10:25;5.25;;;4.75;;
12816;SDS011;6473;51.552;6.716;2022-07-23T03:12:53;6.63;;;4.85;;
12816;SDS011;6473;51.552;6.716;2022-07-23T03:15:20;6.43;;;4.88;;
12816;SDS011;6473;51.552;6.716;2022-07-23T03:17:48;6.97;;;5.75;;
12816;SDS011;6473;51.552;6.716;2022-07-23T03:20:15;6.55;;;4.82;;
12816;SDS011;6473;51.552;6.716;2022-07-23T03:22:44;5.97;;;5.03;;
12816;SDS011;6473;51.552;6.716;2022-07-23T03:25:11;6.30;;;5.30;;
12816;SDS011;6473;51.552;6.716;2022-07-23T03:27:38;5.80;;;5.22;;
12816;SDS011;6473;51.552;6.716;2022-07-23T03:30:07;5.72;;;5.18;;
12816;SDS011;6473;51.552;6.716;2022-07-23T03:32:35;6.20;;;5.60;;
12816;SDS011;6473;51.552;6.716;2022-07-23T03:35:02;6.47;;;5.15;;
12816;SDS011;6473;51.552;6.716;2022-07-23T03:37:30;7.43;;;5.57;;
12816;SDS011;6473;51.552;6.716;2022-07-23T03:39:58;9.23;;;5.47;;
12816;SDS011;6473;51.552;6.716;2022-07-23T03:42:26;5.53;;;4.82;;
12816;SDS011;6473;51.552;6.716;2022-07-23T03:44:54;5.97;;;5.38;;
12816;SDS011;6473;51.552;6.716;2022-07-23T03:47:32;6.88;;;6.22;;
12816;SDS011;6473;51.552;6.716;2022-07-23T03:49:59;5.15;;;4.65;;
12816;SDS011;6473;51.552;6.716;2022-07-23T03:52:26;6.60;;;5.63;;
12816;SDS011;6473;51.552;6.716;2022-07-23T03:54:53;6.78;;;5.25;;
12816;SDS011;6473;51.552;6.716;2022-07-23T03:57:22;6.50;;;5.63;;
12816;SDS011;6473;51.552;6.716;2022-07-23T03:59:49;6.05;;;5.13;;
12816;SDS011;6473;51.552;6.716;2022-07-23T04:02:16;6.03;;;5.30;;
12816;SDS011;6473;51.552;6.716;2022-07-23T04:04:54;6.65;;;5.90;;
12816;SDS011;6473;51.552;6.716;2022-07-23T04:07:20;6.03;;;5.47;;
12816;SDS011;6473;51.552;6.716;2022-07-23T04:09:47;7.80;;;5.47;;
12816;SDS011;6473;51.552;6.716;2022-07-23T04:12:14;6.57;;;5.30;;
12816;SDS011;6473;51.552;6.716;2022-07-23T04:14:41;6.07;;;5.45;;
12816;SDS011;6473;51.552;6.716;2022-07-23T04:17:08;8.40;;;5.78;;
12816;SDS011;6473;51.552;6.716;2022-07-23T04:19:36;8.00;;;5.68;;
12816;SDS011;6473;51.552;6.716;2022-07-23T04:22:07;7.38;;;5.20;;
12816;SDS011;6473;51.552;6.716;2022-07-23T04:24:35;6.28;;;5.63;;
12816;SDS011;6473;51.552;6.716;2022-07-23T04:27:02;6.25;;;5.25;;
12816;SDS011;6473;51.552;6.716;2022-07-23T04:29:31;7.80;;;5.30;;
12816;SDS011;6473;51.552;6.716;2022-07-23T04:31:58;8.48;;;5.78;;
12816;SDS011;6473;51.552;6.716;2022-07-23T04:34:25;7.68;;;6.40;;
12816;SDS011;6473;51.552;6.716;2022-07-23T04:36:53;8.70;;;6.30;;
12816;SDS011;6473;51.552;6.716;2022-07-23T04:39:22;9.02;;;6.22;;
12816;SDS011;6473;51.552;6.716;2022-07-23T04:41:49;6.45;;;5.68;;
12816;SDS011;6473;51.552;6.716;2022-07-23T04:44:16;7.45;;;5.97;;
12816;SDS011;6473;51.552;6.716;2022-07-23T04:46:43;9.75;;;6.05;;
12816;SDS011;6473;51.552;6.716;2022-07-23T04:49:10;6.05;;;5.38;;
12816;SDS011;6473;51.552;6.716;2022-07-23T04:51:37;6.35;;;5.75;;
12816;SDS011;6473;51.552;6.716;2022-07-23T04:54:04;7.78;;;6.43;;
12816;SDS011;6473;51.552;6.716;2022-07-23T04:56:34;7.80;;;6.18;;
12816;SDS011;6473;51.552;6.716;2022-07-23T04:59:02;9.30;;;6.28;;
12816;SDS011;6473;51.552;6.716;2022-07-23T05:01:29;7.68;;;6.25;;
12816;SDS011;6473;51.552;6.716;2022-07-23T05:03:56;7.22;;;6.10;;
12816;SDS011;6473;51.552;6.716;2022-07-23T05:06:27;7.18;;;6.20;;
12816;SDS011;6473;51.552;6.716;2022-07-23T05:08:55;6.88;;;6.03;;
12816;SDS011;6473;51.552;6.716;2022-07-23T05:11:22;7.68;;;6.65;;
12816;SDS011;6473;51.552;6.716;2022-07-23T05:13:50;6.70;;;6.00;;
12816;SDS011;6473;51.552;6.716;2022-07-23T05:16:19;7.20;;;6.47;;
12816;SDS011;6473;51.552;6.716;2022-07-23T05:18:46;9.45;;;6.28;;
12816;SDS011;6473;51.552;6.716;2022-07-23T05:21:13;7.28;;;6.07;;
12816;SDS011;6473;51.552;6.716;2022-07-23T05:23:44;6.90;;;5.65;;
12816;SDS011;6473;51.552;6.716;2022-07-23T05:26:13;7.68;;;6.35;;
12816;SDS011;6473;51.552;6.716;2022-07-23T05:28:55;6.40;;;5.75;;
12816;SDS011;6473;51.552;6.716;2022-07-23T05:31:22;8.32;;;6.47;;
12816;SDS011;6473;51.552;6.716;2022-07-23T05:33:50;6.43;;;5.78;;
12816;SDS011;6473;51.552;6.716;2022-07-23T05:36:20;7.28;;;5.90;;
12816;SDS011;6473;51.552;6.716;2022-07-23T05:39:13;6.50;;;5.68;;
12816;SDS011;6473;51.552;6.716;2022-07-23T05:41:41;8.27;;;5.90;;
12816;SDS011;6473;51.552;6.716;2022-07-23T05:44:10;6.80;;;6.20;;
12816;SDS011;6473;51.552;6.716;2022-07-23T05:46:39;8.18;;;6.40;;
12816;SDS011;6473;51.552;6.716;2022-07-23T05:49:09;7.20;;;6.05;;
12816;SDS011;6473;51.552;6.716;2022-07-23T05:51:55;9.55;;;6.20;;
12816;SDS011;6473;51.552;6.716;2022-07-23T05:54:35;5.82;;;5.22;;
12816;SDS011;6473;51.552;6.716;2022-07-23T05:57:03;5.85;;;5.30;;
12816;SDS011;6473;51.552;6.716;2022-07-23T05:59:32;5.53;;;5.03;;
12816;SDS011;6473;51.552;6.716;2022-07-23T06:01:59;5.63;;;5.10;;
12816;SDS011;6473;51.552;6.716;2022-07-23T06:04:41;5.80;;;5.10;;
12816;SDS011;6473;51.552;6.716;2022-07-23T06:07:20;5.50;;;4.85;;
12816;SDS011;6473;51.552;6.716;2022-07-23T06:10:16;6.35;;;5.00;;
12816;SDS011;6473;51.552;6.716;2022-07-23T06:12:43;6.32;;;4.57;;
12816;SDS011;6473;51.552;6.716;2022-07-23T06:15:12;5.03;;;4.43;;
12816;SDS011;6473;51.552;6.716;2022-07-23T06:17:39;4.65;;;4.15;;
12816;SDS011;6473;51.552;6.716;2022-07-23T06:20:07;5.10;;;4.60;;
12816;SDS011;6473;51.552;6.716;2022-07-23T06:22:37;4.35;;;4.05;;
12816;SDS011;6473;51.552;6.716;2022-07-23T06:25:05;5.15;;;4.63;;
12816;SDS011;6473;51.552;6.716;2022-07-23T06:27:33;5.00;;;4.50;;
12816;SDS011;6473;51.552;6.716;2022-07-23T06:30:00;8.23;;;4.47;;
12816;SDS011;6473;51.552;6.716;2022-07-23T06:32:29;5.93;;;4.53;;
12816;SDS011;6473;51.552;6.716;2022-07-23T06:35:09;5.32;;;4.65;;
12816;SDS011;6473;51.552;6.716;2022-07-23T06:37:36;6.63;;;4.75;;
12816;SDS011;6473;51.552;6.716;2022-07-23T06:40:03;6.18;;;4.43;;
12816;SDS011;6473;51.552;6.716;2022-07-23T06:42:34;4.10;;;3.70;;
12816;SDS011;6473;51.552;6.716;2022-07-23T06:45:04;4.65;;;4.05;;
12816;SDS011;6473;51.552;6.716;2022-07-23T06:47:36;5.30;;;3.90;;
12816;SDS011;6473;51.552;6.716;2022-07-23T06:50:18;4.07;;;3.38;;
12816;SDS011;6473;51.552;6.716;2022-07-23T06:52:48;3.85;;;3.55;;
12816;SDS011;6473;51.552;6.716;2022-07-23T06:55:15;3.55;;;3.20;;
12816;SDS011;6473;51.552;6.716;2022-07-23T06:57:44;3.70;;;3.30;;
12816;SDS011;6473;51.552;6.716;2022-07-23T07:00:34;3.28;;;2.97;;
12816;SDS011;6473;51.552;6.716;2022-07-23T07:03:03;5.05;;;3.15;;
12816;SDS011;6473;51.552;6.716;2022-07-23T07:05:56;3.72;;;3.30;;
12816;SDS011;6473;51.552;6.716;2022-07-23T07:08:37;3.30;;;3.00;;
12816;SDS011;6473;51.552;6.716;2022-07-23T07:11:21;5.25;;;2.97;;
12816;SDS011;6473;51.552;6.716;2022-07-23T07:13:49;4.75;;;2.75;;
12816;SDS011;6473;51.552;6.716;2022-07-23T07:16:16;2.15;;;2.05;;
12816;SDS011;6473;51.552;6.716;2022-07-23T07:19:17;3.67;;;2.45;;
12816;SDS011;6473;51.552;6.716;2022-07-23T07:21:45;3.60;;;2.38;;
12816;SDS011;6473;51.552;6.716;2022-07-23T07:24:12;2.80;;;2.42;;
12816;SDS011;6473;51.552;6.716;2022-07-23T07:26:39;2.60;;;2.30;;
12816;SDS011;6473;51.552;6.716;2022-07-23T07:29:06;3.95;;;2.40;;
12816;SDS011;6473;51.552;6.716;2022-07-23T07:31:33;2.95;;;2.17;;
12816;SDS011;6473;51.552;6.716;2022-07-23T07:34:02;3.97;;;2.70;;
12816;SDS011;6473;51.552;6.716;2022-07-23T07:36:37;4.50;;;2.88;;
12816;SDS011;6473;51.552;6.716;2022-07-23T07:39:08;3.00;;;2.60;;
12816;SDS011;6473;51.552;6.716;2022-07-23T07:41:35;4.88;;;2.88;;
12816;SDS011;6473;51.552;6.716;2022-07-23T07:44:02;4.95;;;2.67;;
12816;SDS011;6473;51.552;6.716;2022-07-23T07:46:30;3.35;;;2.65;;
12816;SDS011;6473;51.552;6.716;2022-07-23T07:48:57;5.30;;;3.35;;
12816;SDS011;6473;51.552;6.716;2022-07-23T07:51:24;4.22;;;2.95;;
12816;SDS011;6473;51.552;6.716;2022-07-23T07:53:52;2.90;;;2.55;;
12816;SDS011;6473;51.552;6.716;2022-07-23T07:56:19;2.67;;;2.47;;
12816;SDS011;6473;51.552;6.716;2022-07-23T07:58:46;3.53;;;2.60;;
12816;SDS011;6473;51.552;6.716;2022-07-23T08:01:13;3.58;;;2.55;;
12816;SDS011;6473;51.552;6.716;2022-07-23T08:03:40;3.50;;;2.28;;
12816;SDS011;6473;51.552;6.716;2022-07-23T08:06:07;3.55;;;2.70;;
12816;SDS011;6473;51.552;6.716;2022-07-23T08:08:34;2.85;;;2.53;;
12816;SDS011;6473;51.552;6.716;2022-07-23T08:11:02;4.32;;;2.50;;
12816;SDS011;6473;51.552;6.716;2022-07-23T08:13:29;6.53;;;2.60;;
12816;SDS011;6473;51.552;6.716;2022-07-23T08:15:56;4.10;;;2.50;;
12816;SDS011;6473;51.552;6.716;2022-07-23T08:18:23;3.33;;;2.25;;
12816;SDS011;6473;51.552;6.716;2022-07-23T08:20:50;3.42;;;2.30;;
12816;SDS011;6473;51.552;6.716;2022-07-23T08:23:19;3.88;;;2.42;;
12816;SDS011;6473;51.552;6.716;2022-07-23T08:25:45;3.85;;;2.45;;
12816;SDS011;6473;51.552;6.716;2022-07-23T08:28:14;3.63;;;2.42;;
12816;SDS011;6473;51.552;6.716;2022-07-23T08:30:42;2.65;;;2.33;;
12816;SDS011;6473;51.552;6.716;2022-07-23T08:33:11;3.00;;;2.35;;
12816;SDS011;6473;51.552;6.716;2022-07-23T08:35:40;3.92;;;2.30;;
12816;SDS011;6473;51.552;6.716;2022-07-23T08:38:09;3.10;;;2.22;;
12816;SDS011;6473;51.552;6.716;2022-07-23T08:40:37;2.65;;;2.00;;
12816;SDS011;6473;51.552;6.716;2022-07-23T08:43:07;5.18;;;2.08;;
12816;SDS011;6473;51.552;6.716;2022-07-23T08:45:38;2.20;;;2.00;;
12816;SDS011;6473;51.552;6.716;2022-07-23T08:48:06;3.30;;;2.10;;
12816;SDS011;6473;51.552;6.716;2022-07-23T08:50:34;1.92;;;1.83;;
12816;SDS011;6473;51.552;6.716;2022-07-23T08:53:04;3.33;;;2.20;;
12816;SDS011;6473;51.552;6.716;2022-07-23T08:55:33;2.75;;;2.22;;
12816;SDS011;6473;51.552;6.716;2022-07-23T08:58:01;2.67;;;1.95;;
12816;SDS011;6473;51.552;6.716;2022-07-23T09:00:28;2.10;;;1.90;;
12816;SDS011;6473;51.552;6.716;2022-07-23T09:02:58;2.90;;;1.95;;
12816;SDS011;6473;51.552;6.716;2022-07-23T09:05:26;2.85;;;1.90;;
12816;SDS011;6473;51.552;6.716;2022-07-23T09:08:06;4.43;;;2.10;;
12816;SDS011;6473;51.552;6.716;2022-07-23T09:10:42;4.03;;;2.80;;
12816;SDS011;6473;51.552;6.716;2022-07-23T09:13:22;2.70;;;2.00;;
12816;SDS011;6473;51.552;6.716;2022-07-23T09:15:52;2.08;;;1.88;;
12816;SDS011;6473;51.552;6.716;2022-07-23T09:18:28;1.90;;;1.80;;
12816;SDS011;6473;51.552;6.716;2022-07-23T09:21:13;1.88;;;1.45;;
12816;SDS011;6473;51.552;6.716;2022-07-23T09:23:42;2.47;;;1.80;;
12816;SDS011;6473;51.552;6.716;2022-07-23T09:31:50;1.90;;;1.70;;
12816;SDS011;6473;51.552;6.716;2022-07-23T09:34:21;1.63;;;1.40;;
12816;SDS011;6473;51.552;6.716;2022-07-23T09:37:09;3.45;;;1.80;;
12816;SDS011;6473;51.552;6.716;2022-07-23T09:40:03;1.63;;;1.52;;
12816;SDS011;6473;51.552;6.716;2022-07-23T09:42:31;2.47;;;1.98;;
12816;SDS011;6473;51.552;6.716;2022-07-23T09:44:58;1.67;;;1.58;;
12816;SDS011;6473;51.552;6.716;2022-07-23T09:47:27;2.35;;;1.60;;
12816;SDS011;6473;51.552;6.716;2022-07-23T09:50:00;1.58;;;1.48;;
12816;SDS011;6473;51.552;6.716;2022-07-23T09:52:32;2.33;;;1.73;;
12816;SDS011;6473;51.552;6.716;2022-07-23T09:55:00;2.20;;;2.03;;
12816;SDS011;6473;51.552;6.716;2022-07-23T09:57:29;3.00;;;1.60;;
12816;SDS011;6473;51.552;6.716;2022-07-23T10:00:00;1.73;;;1.42;;
12816;SDS011;6473;51.552;6.716;2022-07-23T10:02:29;1.67;;;1.40;;
12816;SDS011;6473;51.552;6.716;2022-07-23T10:05:19;2.35;;;1.60;;
12816;SDS011;6473;51.552;6.716;2022-07-23T10:08:10;4.95;;;2.10;;
12816;SDS011;6473;51.552;6.716;2022-07-23T10:10:57;2.03;;;1.90;;
12816;SDS011;6473;51.552;6.716;2022-07-23T10:13:50;2.85;;;2.00;;
12816;SDS011;6473;51.552;6.716;2022-07-23T10:16:37;1.90;;;1.80;;
12816;SDS011;6473;51.552;6.716;2022-07-23T10:19:05;1.90;;;1.63;;
12816;SDS011;6473;51.552;6.716;2022-07-23T10:21:36;1.60;;;1.50;;
12816;SDS011;6473;51.552;6.716;2022-07-23T10:24:15;2.28;;;1.83;;
12816;SDS011;6473;51.552;6.716;2022-07-23T10:26:52;2.30;;;2.10;;
12816;SDS011;6473;51.552;6.716;2022-07-23T10:29:42;1.85;;;1.75;;
12816;SDS011;6473;51.552;6.716;2022-07-23T10:32:30;3.03;;;1.95;;
12816;SDS011;6473;51.552;6.716;2022-07-23T10:35:15;1.70;;;1.55;;
12816;SDS011;6473;51.552;6.716;2022-07-23T10:37:55;1.42;;;1.30;;
12816;SDS011;6473;51.552;6.716;2022-07-23T10:40:28;2.13;;;1.40;;
12816;SDS011;6473;51.552;6.716;2022-07-23T10:42:58;1.58;;;1.48;;
12816;SDS011;6473;51.552;6.716;2022-07-23T10:45:28;1.63;;;1.52;;
12816;SDS011;6473;51.552;6.716;2022-07-23T10:48:11;3.88;;;1.90;;
12816;SDS011;6473;51.552;6.716;2022-07-23T10:50:40;2.58;;;1.48;;
12816;SDS011;6473;51.552;6.716;2022-07-23T10:53:11;1.63;;;1.50;;
12816;SDS011;6473;51.552;6.716;2022-07-23T10:55:48;2.97;;;1.70;;
12816;SDS011;6473;51.552;6.716;2022-07-23T10:58:17;1.70;;;1.60;;
12816;SDS011;6473;51.552;6.716;2022-07-23T11:00:46;2.17;;;1.25;;
12816;SDS011;6473;51.552;6.716;2022-07-23T11:03:33;1.92;;;1.67;;
12816;SDS011;6473;51.552;6.716;2022-07-23T11:06:03;1.98;;;1.45;;
12816;SDS011;6473;51.552;6.716;2022-07-23T11:08:32;2.70;;;1.35;;
12816;SDS011;6473;51.552;6.716;2022-07-23T11:11:09;1.98;;;1.58;;
12816;SDS011;6473;51.552;6.716;2022-07-23T11:13:47;2.08;;;1.80;;
12816;SDS011;6473;51.552;6.716;2022-07-23T11:16:19;3.75;;;1.80;;
12816;SDS011;6473;51.552;6.716;2022-07-23T11:19:12;2.17;;;1.80;;
12816;SDS011;6473;51.552;6.716;2022-07-23T11:24:55;4.45;;;1.55;;
12816;SDS011;6473;51.552;6.716;2022-07-23T11:27:37;2.58;;;1.67;;
12816;SDS011;6473;51.552;6.716;2022-07-23T11:33:20;2.20;;;1.50;;
12816;SDS011;6473;51.552;6.716;2022-07-23T11:36:00;1.80;;;1.70;;
12816;SDS011;6473;51.552;6.716;2022-07-23T11:38:40;1.98;;;1.52;;
12816;SDS011;6473;51.552;6.716;2022-07-23T11:41:12;1.65;;;1.30;;
12816;SDS011;6473;51.552;6.716;2022-07-23T11:43:41;1.33;;;1.23;;
12816;SDS011;6473;51.552;6.716;2022-07-23T11:46:09;2.50;;;1.63;;
12816;SDS011;6473;51.552;6.716;2022-07-23T11:48:36;1.77;;;1.67;;
12816;SDS011;6473;51.552;6.716;2022-07-23T11:51:04;1.70;;;1.60;;
12816;SDS011;6473;51.552;6.716;2022-07-23T11:53:36;4.40;;;1.83;;
12816;SDS011;6473;51.552;6.716;2022-07-23T11:56:03;1.58;;;1.48;;
12816;SDS011;6473;51.552;6.716;2022-07-23T11:58:39;2.70;;;1.60;;
12816;SDS011;6473;51.552;6.716;2022-07-23T12:01:21;2.13;;;1.60;;
12816;SDS011;6473;51.552;6.716;2022-07-23T12:03:49;1.67;;;1.58;;
12816;SDS011;6473;51.552;6.716;2022-07-23T12:06:22;1.75;;;1.38;;
12816;SDS011;6473;51.552;6.716;2022-07-23T12:08:49;1.95;;;1.40;;
12816;SDS011;6473;51.552;6.716;2022-07-23T12:11:16;1.92;;;1.50;;
12816;SDS011;6473;51.552;6.716;2022-07-23T12:13:54;3.60;;;1.92;;
12816;SDS011;6473;51.552;6.716;2022-07-23T12:16:28;2.13;;;1.50;;
12816;SDS011;6473;51.552;6.716;2022-07-23T12:18:56;1.17;;;1.08;;
12816;SDS011;6473;51.552;6.716;2022-07-23T12:21:37;2.42;;;1.50;;
12816;SDS011;6473;51.552;6.716;2022-07-23T12:24:21;1.85;;;1.70;;
12816;SDS011;6473;51.552;6.716;2022-07-23T12:29:42;1.85;;;1.23;;
12816;SDS011;6473;51.552;6.716;2022-07-23T12:32:22;3.42;;;1.50;;
12816;SDS011;6473;51.552;6.716;2022-07-23T12:35:04;1.33;;;1.23;;
12816;SDS011;6473;51.552;6.716;2022-07-23T12:37:36;1.30;;;1.25;;
12816;SDS011;6473;51.552;6.716;2022-07-23T12:40:19;1.52;;;1.42;;
12816;SDS011;6473;51.552;6.716;2022-07-23T12:42:51;2.22;;;1.40;;
12816;SDS011;6473;51.552;6.716;2022-07-23T12:45:23;3.25;;;1.40;;
12816;SDS011;6473;51.552;6.716;2022-07-23T12:47:55;2.17;;;1.55;;
12816;SDS011;6473;51.552;6.716;2022-07-23T12:50:35;1.48;;;1.30;;
12816;SDS011;6473;51.552;6.716;2022-07-23T12:53:08;2.53;;;1.60;;
12816;SDS011;6473;51.552;6.716;2022-07-23T12:55:39;1.70;;;1.50;;
12816;SDS011;6473;51.552;6.716;2022-07-23T12:58:08;1.50;;;1.40;;
12816;SDS011;6473;51.552;6.716;2022-07-23T13:04:20;1.60;;;1.50;;
12816;SDS011;6473;51.552;6.716;2022-07-23T13:06:49;2.17;;;1.48;;
12816;SDS011;6473;51.552;6.716;2022-07-23T13:09:17;1.50;;;1.40;;
12816;SDS011;6473;51.552;6.716;2022-07-23T13:11:46;1.75;;;1.65;;
12816;SDS011;6473;51.552;6.716;2022-07-23T13:14:20;1.30;;;1.20;;
12816;SDS011;6473;51.552;6.716;2022-07-23T13:16:50;1.67;;;1.58;;
12816;SDS011;6473;51.552;6.716;2022-07-23T13:19:30;2.10;;;1.70;;
12816;SDS011;6473;51.552;6.716;2022-07-23T13:22:06;1.90;;;1.27;;
12816;SDS011;6473;51.552;6.716;2022-07-23T13:24:46;1.70;;;1.60;;
12816;SDS011;6473;51.552;6.716;2022-07-23T13:27:38;1.80;;;1.70;;
12816;SDS011;6473;51.552;6.716;2022-07-23T13:30:08;1.58;;;1.48;;
12816;SDS011;6473;51.552;6.716;2022-07-23T13:32:38;1.70;;;1.60;;
12816;SDS011;6473;51.552;6.716;2022-07-23T13:35:06;1.50;;;1.40;;
12816;SDS011;6473;51.552;6.716;2022-07-23T13:37:33;3.00;;;1.80;;
12816;SDS011;6473;51.552;6.716;2022-07-23T13:40:00;1.50;;;1.40;;
12816;SDS011;6473;51.552;6.716;2022-07-23T13:42:28;4.28;;;1.73;;
12816;SDS011;6473;51.552;6.716;2022-07-23T13:44:55;3.97;;;1.88;;
12816;SDS011;6473;51.552;6.716;2022-07-23T13:47:27;2.03;;;1.75;;
12816;SDS011;6473;51.552;6.716;2022-07-23T13:50:10;1.90;;;1.80;;
12816;SDS011;6473;51.552;6.716;2022-07-23T13:52:57;2.05;;;1.90;;
12816;SDS011;6473;51.552;6.716;2022-07-23T13:55:27;4.45;;;4.05;;
12816;SDS011;6473;51.552;6.716;2022-07-23T13:57:57;1.90;;;1.80;;
12816;SDS011;6473;51.552;6.716;2022-07-23T14:00:26;2.00;;;1.90;;
12816;SDS011;6473;51.552;6.716;2022-07-23T14:02:55;2.25;;;1.85;;
12816;SDS011;6473;51.552;6.716;2022-07-23T14:05:25;2.97;;;1.58;;
12816;SDS011;6473;51.552;6.716;2022-07-23T14:08:04;1.63;;;1.52;;
12816;SDS011;6473;51.552;6.716;2022-07-23T14:10:52;2.15;;;1.63;;
12816;SDS011;6473;51.552;6.716;2022-07-23T14:13:22;2.00;;;1.80;;
12816;SDS011;6473;51.552;6.716;2022-07-23T14:15:52;2.33;;;1.65;;
12816;SDS011;6473;51.552;6.716;2022-07-23T14:18:20;1.60;;;1.50;;
12816;SDS011;6473;51.552;6.716;2022-07-23T14:20:48;2.35;;;1.52;;
12816;SDS011;6473;51.552;6.716;2022-07-23T14:23:15;3.67;;;1.70;;
12816;SDS011;6473;51.552;6.716;2022-07-23T14:25:42;1.92;;;1.60;;
12816;SDS011;6473;51.552;6.716;2022-07-23T14:28:09;2.17;;;1.60;;
12816;SDS011;6473;51.552;6.716;2022-07-23T14:30:37;1.90;;;1.80;;
12816;SDS011;6473;51.552;6.716;2022-07-23T14:33:04;1.52;;;1.42;;
12816;SDS011;6473;51.552;6.716;2022-07-23T14:35:31;3.00;;;2.05;;
12816;SDS011;6473;51.552;6.716;2022-07-23T14:37:59;2.20;;;1.70;;
12816;SDS011;6473;51.552;6.716;2022-07-23T14:40:26;4.65;;;1.88;;
12816;SDS011;6473;51.552;6.716;2022-07-23T14:42:54;1.90;;;1.80;;
12816;SDS011;6473;51.552;6.716;2022-07-23T14:45:21;2.08;;;1.85;;
12816;SDS011;6473;51.552;6.716;2022-07-23T14:47:51;2.38;;;2.00;;
12816;SDS011;6473;51.552;6.716;2022-07-23T14:50:18;2.10;;;1.90;;
12816;SDS011;6473;51.552;6.716;2022-07-23T14:52:45;1.95;;;1.75;;
12816;SDS011;6473;51.552;6.716;2022-07-23T14:55:18;2.55;;;1.60;;
12816;SDS011;6473;51.552;6.716;2022-07-23T14:57:51;3.10;;;1.95;;
12816;SDS011;6473;51.552;6.716;2022-07-23T15:00:58;2.45;;;1.85;;
12816;SDS011;6473;51.552;6.716;2022-07-23T15:03:55;1.98;;;1.77;;
12816;SDS011;6473;51.552;6.716;2022-07-23T15:06:23;2.83;;;1.77;;
12816;SDS011;6473;51.552;6.716;2022-07-23T15:08:50;2.45;;;1.90;;
12816;SDS011;6473;51.552;6.716;2022-07-23T15:11:19;2.75;;;2.28;;
12816;SDS011;6473;51.552;6.716;2022-07-23T15:16:31;2.78;;;2.33;;
12816;SDS011;6473;51.552;6.716;2022-07-23T15:18:59;2.08;;;1.88;;
12816;SDS011;6473;51.552;6.716;2022-07-23T15:21:27;2.30;;;1.95;;
12816;SDS011;6473;51.552;6.716;2022-07-23T15:23:55;3.88;;;2.00;;
12816;SDS011;6473;51.552;6.716;2022-07-23T15:26:25;2.10;;;1.90;;
12816;SDS011;6473;51.552;6.716;2022-07-23T15:29:06;2.35;;;2.15;;
12816;SDS011;6473;51.552;6.716;2022-07-23T15:31:34;2.53;;;2.10;;
12816;SDS011;6473;51.552;6.716;2022-07-23T15:34:01;1.73;;;1.63;;
12816;SDS011;6473;51.552;6.716;2022-07-23T15:36:29;2.40;;;2.00;;
12816;SDS011;6473;51.552;6.716;2022-07-23T15:38:59;1.98;;;1.80;;
12816;SDS011;6473;51.552;6.716;2022-07-23T15:41:28;2.10;;;1.90;;
12816;SDS011;6473;51.552;6.716;2022-07-23T15:43:58;2.65;;;2.05;;
12816;SDS011;6473;51.552;6.716;2022-07-23T15:46:25;5.72;;;2.78;;